Bayou Petite Prairie, Louisiana
Current Conditions -  °F | °C
As of 1:15 AM on Thursday 23 Oct 2014 (Local Time) from KOPL Reporting Station
Clear Clear  
Wind Chill: 54°   Ceiling: Unl
Heat Index: 54°   Visibility: 10mi
Dew Point: 51°   Wind: 5mph
Humidity: 91%   Direction: 10°N
Pressure: 30.1"   Gusts: NA
Location:  30.7315°N, 91.9765°W
Report Text: KOPL 230615Z AUTO 01004KT 10SM CLR 12/11 A3010 RMK AO2 T01210107
Loading
Personal Weather Stations






























Interactive Weather Map
Tropical Storm Tracking
New forecast layout! Learn more

10-Day Weather Forecast

Advertisements
Track Severe Weather on mobile